sensor_id;sensor_type;location;lat;lon;timestamp;temperature;humidity
55785;DHT22;41709;52.536;5.688;2024-02-21T00:00:14;9.20;94.20
55785;DHT22;41709;52.536;5.688;2024-02-21T00:02:40;9.20;94.30
55785;DHT22;41709;52.536;5.688;2024-02-21T00:05:05;9.20;94.20
55785;DHT22;41709;52.536;5.688;2024-02-21T00:07:31;9.20;94.40
55785;DHT22;41709;52.536;5.688;2024-02-21T00:09:56;9.20;94.50
55785;DHT22;41709;52.536;5.688;2024-02-21T00:12:22;9.20;94.50
55785;DHT22;41709;52.536;5.688;2024-02-21T00:14:48;9.20;94.50
55785;DHT22;41709;52.536;5.688;2024-02-21T00:17:13;9.20;94.50
55785;DHT22;41709;52.536;5.688;2024-02-21T00:19:39;9.20;94.60
55785;DHT22;41709;52.536;5.688;2024-02-21T00:22:04;9.20;94.50
55785;DHT22;41709;52.536;5.688;2024-02-21T00:24:30;9.20;94.50
55785;DHT22;41709;52.536;5.688;2024-02-21T00:26:55;9.20;94.60
55785;DHT22;41709;52.536;5.688;2024-02-21T00:29:21;9.20;94.60
55785;DHT22;41709;52.536;5.688;2024-02-21T00:31:47;9.30;94.70
55785;DHT22;41709;52.536;5.688;2024-02-21T00:34:13;9.20;94.80
55785;DHT22;41709;52.536;5.688;2024-02-21T00:36:38;9.20;94.80
55785;DHT22;41709;52.536;5.688;2024-02-21T00:39:04;9.20;94.90
55785;DHT22;41709;52.536;5.688;2024-02-21T00:41:29;9.20;94.90
55785;DHT22;41709;52.536;5.688;2024-02-21T00:43:55;9.20;94.90
55785;DHT22;41709;52.536;5.688;2024-02-21T00:46:21;9.20;94.90
55785;DHT22;41709;52.536;5.688;2024-02-21T00:48:46;9.20;95.00
55785;DHT22;41709;52.536;5.688;2024-02-21T00:51:12;9.20;94.90
55785;DHT22;41709;52.536;5.688;2024-02-21T00:53:37;9.30;95.00
55785;DHT22;41709;52.536;5.688;2024-02-21T00:56:05;9.20;95.10
55785;DHT22;41709;52.536;5.688;2024-02-21T00:58:30;9.20;95.00
55785;DHT22;41709;52.536;5.688;2024-02-21T01:00:56;9.20;95.10
55785;DHT22;41709;52.536;5.688;2024-02-21T01:03:22;9.20;95.10
55785;DHT22;41709;52.536;5.688;2024-02-21T01:05:47;9.20;95.10
55785;DHT22;41709;52.536;5.688;2024-02-21T01:08:13;9.20;95.10
55785;DHT22;41709;52.536;5.688;2024-02-21T01:10:38;9.20;95.10
55785;DHT22;41709;52.536;5.688;2024-02-21T01:13:04;9.20;95.00
55785;DHT22;41709;52.536;5.688;2024-02-21T01:15:29;9.20;95.10
55785;DHT22;41709;52.536;5.688;2024-02-21T01:17:55;9.20;95.50
55785;DHT22;41709;52.536;5.688;2024-02-21T01:20:21;9.20;95.20
55785;DHT22;41709;52.536;5.688;2024-02-21T01:22:47;9.20;95.20
55785;DHT22;41709;52.536;5.688;2024-02-21T01:25:12;9.20;95.10
55785;DHT22;41709;52.536;5.688;2024-02-21T01:27:38;9.20;95.10
55785;DHT22;41709;52.536;5.688;2024-02-21T01:30:04;9.20;95.10
55785;DHT22;41709;52.536;5.688;2024-02-21T01:32:31;9.20;95.20
55785;DHT22;41709;52.536;5.688;2024-02-21T01:34:56;9.20;95.20
55785;DHT22;41709;52.536;5.688;2024-02-21T01:37:22;9.20;95.10
55785;DHT22;41709;52.536;5.688;2024-02-21T01:39:47;9.20;95.10
55785;DHT22;41709;52.536;5.688;2024-02-21T01:42:14;9.20;95.20
55785;DHT22;41709;52.536;5.688;2024-02-21T01:44:40;9.10;95.20
55785;DHT22;41709;52.536;5.688;2024-02-21T01:47:07;9.10;95.30
55785;DHT22;41709;52.536;5.688;2024-02-21T01:49:33;9.10;95.30
55785;DHT22;41709;52.536;5.688;2024-02-21T01:51:59;9.10;95.30
55785;DHT22;41709;52.536;5.688;2024-02-21T01:54:25;9.10;95.20
55785;DHT22;41709;52.536;5.688;2024-02-21T01:56:54;9.20;95.10
55785;DHT22;41709;52.536;5.688;2024-02-21T01:59:21;9.20;95.10
55785;DHT22;41709;52.536;5.688;2024-02-21T02:01:47;9.30;95.00
55785;DHT22;41709;52.536;5.688;2024-02-21T02:04:13;9.30;94.90
55785;DHT22;41709;52.536;5.688;2024-02-21T02:06:40;9.30;94.90
55785;DHT22;41709;52.536;5.688;2024-02-21T02:09:06;9.30;95.00
55785;DHT22;41709;52.536;5.688;2024-02-21T02:11:32;9.30;94.90
55785;DHT22;41709;52.536;5.688;2024-02-21T02:13:57;9.30;94.90
55785;DHT22;41709;52.536;5.688;2024-02-21T02:16:23;9.30;94.80
55785;DHT22;41709;52.536;5.688;2024-02-21T02:18:48;9.30;94.90
55785;DHT22;41709;52.536;5.688;2024-02-21T02:21:32;9.30;94.90
55785;DHT22;41709;52.536;5.688;2024-02-21T02:23:59;9.30;94.80
55785;DHT22;41709;52.536;5.688;2024-02-21T02:26:25;9.30;94.80
55785;DHT22;41709;52.536;5.688;2024-02-21T02:28:50;9.30;94.80
55785;DHT22;41709;52.536;5.688;2024-02-21T02:31:16;9.40;94.80
55785;DHT22;41709;52.536;5.688;2024-02-21T02:33:44;9.40;94.70
55785;DHT22;41709;52.536;5.688;2024-02-21T02:36:10;9.40;94.80
55785;DHT22;41709;52.536;5.688;2024-02-21T02:38:36;9.40;94.80
55785;DHT22;41709;52.536;5.688;2024-02-21T02:41:02;9.40;94.90
55785;DHT22;41709;52.536;5.688;2024-02-21T02:43:28;9.40;94.80
55785;DHT22;41709;52.536;5.688;2024-02-21T02:45:53;9.40;94.80
55785;DHT22;41709;52.536;5.688;2024-02-21T02:48:19;9.40;94.80
55785;DHT22;41709;52.536;5.688;2024-02-21T02:50:45;9.50;94.70
55785;DHT22;41709;52.536;5.688;2024-02-21T02:53:11;9.50;94.60
55785;DHT22;41709;52.536;5.688;2024-02-21T02:55:36;9.40;95.00
55785;DHT22;41709;52.536;5.688;2024-02-21T02:58:02;9.50;94.70
55785;DHT22;41709;52.536;5.688;2024-02-21T03:00:28;9.60;94.70
55785;DHT22;41709;52.536;5.688;2024-02-21T03:02:54;9.50;94.70
55785;DHT22;41709;52.536;5.688;2024-02-21T03:05:21;9.50;94.80
55785;DHT22;41709;52.536;5.688;2024-02-21T03:07:47;9.50;95.00
55785;DHT22;41709;52.536;5.688;2024-02-21T03:10:14;9.50;95.10
55785;DHT22;41709;52.536;5.688;2024-02-21T03:12:42;9.40;95.20
55785;DHT22;41709;52.536;5.688;2024-02-21T03:15:08;9.30;95.30
55785;DHT22;41709;52.536;5.688;2024-02-21T03:17:33;9.30;95.40
55785;DHT22;41709;52.536;5.688;2024-02-21T03:20:00;9.40;95.40
55785;DHT22;41709;52.536;5.688;2024-02-21T03:22:26;9.20;96.00
55785;DHT22;41709;52.536;5.688;2024-02-21T03:24:51;9.30;95.70
55785;DHT22;41709;52.536;5.688;2024-02-21T03:27:17;9.30;95.60
55785;DHT22;41709;52.536;5.688;2024-02-21T03:29:43;9.30;95.70
55785;DHT22;41709;52.536;5.688;2024-02-21T03:32:09;9.20;95.60
55785;DHT22;41709;52.536;5.688;2024-02-21T03:34:35;9.20;95.70
55785;DHT22;41709;52.536;5.688;2024-02-21T03:37:00;9.20;95.70
55785;DHT22;41709;52.536;5.688;2024-02-21T03:39:26;9.20;95.80
55785;DHT22;41709;52.536;5.688;2024-02-21T03:41:52;9.10;95.80
55785;DHT22;41709;52.536;5.688;2024-02-21T03:44:17;9.20;95.90
55785;DHT22;41709;52.536;5.688;2024-02-21T03:46:43;9.20;95.90
55785;DHT22;41709;52.536;5.688;2024-02-21T03:49:08;9.10;96.00
55785;DHT22;41709;52.536;5.688;2024-02-21T03:51:34;9.10;96.00
55785;DHT22;41709;52.536;5.688;2024-02-21T03:53:59;9.10;96.00
55785;DHT22;41709;52.536;5.688;2024-02-21T03:56:25;9.20;96.00
55785;DHT22;41709;52.536;5.688;2024-02-21T03:58:50;9.20;96.00
55785;DHT22;41709;52.536;5.688;2024-02-21T04:01:16;9.20;96.00
55785;DHT22;41709;52.536;5.688;2024-02-21T04:03:43;9.30;95.90
55785;DHT22;41709;52.536;5.688;2024-02-21T04:06:09;9.20;95.90
55785;DHT22;41709;52.536;5.688;2024-02-21T04:08:35;9.30;95.90
55785;DHT22;41709;52.536;5.688;2024-02-21T04:11:00;9.30;95.80
55785;DHT22;41709;52.536;5.688;2024-02-21T04:13:26;9.30;95.80
55785;DHT22;41709;52.536;5.688;2024-02-21T04:15:52;9.30;95.70
55785;DHT22;41709;52.536;5.688;2024-02-21T04:18:17;9.30;95.70
55785;DHT22;41709;52.536;5.688;2024-02-21T04:20:43;9.30;95.60
55785;DHT22;41709;52.536;5.688;2024-02-21T04:23:09;9.40;95.70
55785;DHT22;41709;52.536;5.688;2024-02-21T04:25:34;9.40;95.60
55785;DHT22;41709;52.536;5.688;2024-02-21T04:28:00;9.40;95.60
55785;DHT22;41709;52.536;5.688;2024-02-21T04:30:26;9.40;95.60
55785;DHT22;41709;52.536;5.688;2024-02-21T04:32:51;9.30;95.50
55785;DHT22;41709;52.536;5.688;2024-02-21T04:35:17;9.40;95.50
55785;DHT22;41709;52.536;5.688;2024-02-21T04:37:42;9.40;95.40
55785;DHT22;41709;52.536;5.688;2024-02-21T04:40:08;9.40;95.40
55785;DHT22;41709;52.536;5.688;2024-02-21T04:42:34;9.40;95.40
55785;DHT22;41709;52.536;5.688;2024-02-21T04:45:00;9.40;95.40
55785;DHT22;41709;52.536;5.688;2024-02-21T04:47:26;9.40;95.40
55785;DHT22;41709;52.536;5.688;2024-02-21T04:49:52;9.40;95.30
55785;DHT22;41709;52.536;5.688;2024-02-21T04:52:18;9.40;95.30
55785;DHT22;41709;52.536;5.688;2024-02-21T04:54:43;9.40;95.20
55785;DHT22;41709;52.536;5.688;2024-02-21T04:57:09;9.40;95.20
55785;DHT22;41709;52.536;5.688;2024-02-21T04:59:36;9.40;95.10
55785;DHT22;41709;52.536;5.688;2024-02-21T05:02:02;9.40;95.20
55785;DHT22;41709;52.536;5.688;2024-02-21T05:04:28;9.40;95.20
55785;DHT22;41709;52.536;5.688;2024-02-21T05:06:53;9.40;95.10
55785;DHT22;41709;52.536;5.688;2024-02-21T05:09:20;9.40;95.20
55785;DHT22;41709;52.536;5.688;2024-02-21T05:11:45;9.40;95.10
55785;DHT22;41709;52.536;5.688;2024-02-21T05:14:11;9.40;95.10
55785;DHT22;41709;52.536;5.688;2024-02-21T05:16:36;9.40;94.80
55785;DHT22;41709;52.536;5.688;2024-02-21T05:19:03;9.50;94.90
55785;DHT22;41709;52.536;5.688;2024-02-21T05:21:29;9.50;94.80
55785;DHT22;41709;52.536;5.688;2024-02-21T05:23:55;9.50;94.80
55785;DHT22;41709;52.536;5.688;2024-02-21T05:26:25;9.50;94.80
55785;DHT22;41709;52.536;5.688;2024-02-21T05:28:50;9.60;94.70
55785;DHT22;41709;52.536;5.688;2024-02-21T05:31:18;9.60;94.60
55785;DHT22;41709;52.536;5.688;2024-02-21T05:33:44;9.60;94.60
55785;DHT22;41709;52.536;5.688;2024-02-21T05:36:10;9.60;94.50
55785;DHT22;41709;52.536;5.688;2024-02-21T05:38:35;9.60;94.50
55785;DHT22;41709;52.536;5.688;2024-02-21T05:41:01;9.60;94.40
55785;DHT22;41709;52.536;5.688;2024-02-21T05:43:27;9.70;94.40
55785;DHT22;41709;52.536;5.688;2024-02-21T05:45:52;9.70;94.30
55785;DHT22;41709;52.536;5.688;2024-02-21T05:48:18;9.70;94.30
55785;DHT22;41709;52.536;5.688;2024-02-21T05:50:44;9.70;94.20
55785;DHT22;41709;52.536;5.688;2024-02-21T05:53:09;9.70;94.20
55785;DHT22;41709;52.536;5.688;2024-02-21T05:55:36;9.70;94.20
55785;DHT22;41709;52.536;5.688;2024-02-21T05:58:02;9.70;94.20
55785;DHT22;41709;52.536;5.688;2024-02-21T06:00:28;9.70;94.20
55785;DHT22;41709;52.536;5.688;2024-02-21T06:02:53;9.70;94.20
55785;DHT22;41709;52.536;5.688;2024-02-21T06:05:19;9.70;94.10
55785;DHT22;41709;52.536;5.688;2024-02-21T06:07:45;9.70;94.00
55785;DHT22;41709;52.536;5.688;2024-02-21T06:10:10;9.70;93.90
55785;DHT22;41709;52.536;5.688;2024-02-21T06:12:36;9.70;93.90
55785;DHT22;41709;52.536;5.688;2024-02-21T06:15:01;9.70;93.90
55785;DHT22;41709;52.536;5.688;2024-02-21T06:17:27;9.70;93.80
55785;DHT22;41709;52.536;5.688;2024-02-21T06:19:53;9.70;93.80
55785;DHT22;41709;52.536;5.688;2024-02-21T06:22:18;9.70;93.80
55785;DHT22;41709;52.536;5.688;2024-02-21T06:24:44;9.70;93.80
55785;DHT22;41709;52.536;5.688;2024-02-21T06:27:10;9.70;93.80
55785;DHT22;41709;52.536;5.688;2024-02-21T06:29:37;9.70;93.80
55785;DHT22;41709;52.536;5.688;2024-02-21T06:32:02;9.70;93.70
55785;DHT22;41709;52.536;5.688;2024-02-21T06:34:28;9.60;93.70
55785;DHT22;41709;52.536;5.688;2024-02-21T06:36:54;9.60;93.80
55785;DHT22;41709;52.536;5.688;2024-02-21T06:39:19;9.60;93.80
55785;DHT22;41709;52.536;5.688;2024-02-21T06:41:45;9.60;93.80
55785;DHT22;41709;52.536;5.688;2024-02-21T06:44:12;9.50;93.90
55785;DHT22;41709;52.536;5.688;2024-02-21T06:46:37;9.50;93.90
55785;DHT22;41709;52.536;5.688;2024-02-21T06:49:03;9.50;93.90
55785;DHT22;41709;52.536;5.688;2024-02-21T06:51:29;9.50;93.80
55785;DHT22;41709;52.536;5.688;2024-02-21T06:53:55;9.50;93.90
55785;DHT22;41709;52.536;5.688;2024-02-21T06:56:24;9.60;93.90
55785;DHT22;41709;52.536;5.688;2024-02-21T06:58:57;9.50;93.90
55785;DHT22;41709;52.536;5.688;2024-02-21T07:01:23;9.50;93.90
55785;DHT22;41709;52.536;5.688;2024-02-21T07:03:49;9.50;94.00
55785;DHT22;41709;52.536;5.688;2024-02-21T07:06:14;9.50;93.90
55785;DHT22;41709;52.536;5.688;2024-02-21T07:08:40;9.50;93.90
55785;DHT22;41709;52.536;5.688;2024-02-21T07:11:05;9.50;93.90
55785;DHT22;41709;52.536;5.688;2024-02-21T07:13:32;9.50;93.90
55785;DHT22;41709;52.536;5.688;2024-02-21T07:15:58;9.50;93.90
55785;DHT22;41709;52.536;5.688;2024-02-21T07:18:23;9.50;93.90
55785;DHT22;41709;52.536;5.688;2024-02-21T07:20:51;9.50;93.90
55785;DHT22;41709;52.536;5.688;2024-02-21T07:23:17;9.50;93.90
55785;DHT22;41709;52.536;5.688;2024-02-21T07:25:43;9.50;93.90
55785;DHT22;41709;52.536;5.688;2024-02-21T07:28:08;9.60;93.90
55785;DHT22;41709;52.536;5.688;2024-02-21T07:30:34;9.50;93.90
55785;DHT22;41709;52.536;5.688;2024-02-21T07:32:59;9.50;93.80
55785;DHT22;41709;52.536;5.688;2024-02-21T07:35:25;9.50;93.80
55785;DHT22;41709;52.536;5.688;2024-02-21T07:37:51;9.50;93.70
55785;DHT22;41709;52.536;5.688;2024-02-21T07:40:17;9.50;93.80
55785;DHT22;41709;52.536;5.688;2024-02-21T07:42:43;9.50;93.80
55785;DHT22;41709;52.536;5.688;2024-02-21T07:45:09;9.50;93.80
55785;DHT22;41709;52.536;5.688;2024-02-21T07:47:36;9.60;93.70
55785;DHT22;41709;52.536;5.688;2024-02-21T07:50:02;9.60;93.80
55785;DHT22;41709;52.536;5.688;2024-02-21T07:52:28;9.60;94.10
55785;DHT22;41709;52.536;5.688;2024-02-21T07:54:54;9.60;93.80
55785;DHT22;41709;52.536;5.688;2024-02-21T07:57:19;9.60;93.60
55785;DHT22;41709;52.536;5.688;2024-02-21T07:59:45;9.60;93.50
55785;DHT22;41709;52.536;5.688;2024-02-21T08:02:13;9.60;93.50
55785;DHT22;41709;52.536;5.688;2024-02-21T08:04:39;9.70;93.50
55785;DHT22;41709;52.536;5.688;2024-02-21T08:07:05;9.60;93.50
55785;DHT22;41709;52.536;5.688;2024-02-21T08:09:30;9.60;93.50
55785;DHT22;41709;52.536;5.688;2024-02-21T08:11:56;9.60;93.40
55785;DHT22;41709;52.536;5.688;2024-02-21T08:14:22;9.60;93.40
55785;DHT22;41709;52.536;5.688;2024-02-21T08:16:48;9.60;93.40
55785;DHT22;41709;52.536;5.688;2024-02-21T08:19:13;9.70;93.30
55785;DHT22;41709;52.536;5.688;2024-02-21T08:21:39;9.60;93.40
55785;DHT22;41709;52.536;5.688;2024-02-21T08:24:05;9.60;93.30
55785;DHT22;41709;52.536;5.688;2024-02-21T08:26:30;9.60;93.40
55785;DHT22;41709;52.536;5.688;2024-02-21T08:28:57;9.60;93.40
55785;DHT22;41709;52.536;5.688;2024-02-21T08:31:26;9.60;93.30
55785;DHT22;41709;52.536;5.688;2024-02-21T08:33:57;9.70;93.50
55785;DHT22;41709;52.536;5.688;2024-02-21T08:36:31;9.70;93.20
55785;DHT22;41709;52.536;5.688;2024-02-21T08:38:58;9.70;93.30
55785;DHT22;41709;52.536;5.688;2024-02-21T08:41:24;9.60;93.30
55785;DHT22;41709;52.536;5.688;2024-02-21T08:43:53;9.60;93.20
55785;DHT22;41709;52.536;5.688;2024-02-21T08:46:19;9.60;93.20
55785;DHT22;41709;52.536;5.688;2024-02-21T08:48:46;9.70;93.20
55785;DHT22;41709;52.536;5.688;2024-02-21T08:51:12;9.70;93.10
55785;DHT22;41709;52.536;5.688;2024-02-21T08:53:38;9.70;93.00
55785;DHT22;41709;52.536;5.688;2024-02-21T08:56:04;9.70;93.10
55785;DHT22;41709;52.536;5.688;2024-02-21T08:58:30;9.70;93.10
55785;DHT22;41709;52.536;5.688;2024-02-21T09:00:56;9.70;93.00
55785;DHT22;41709;52.536;5.688;2024-02-21T09:03:22;9.70;93.00
55785;DHT22;41709;52.536;5.688;2024-02-21T09:05:48;9.90;93.00
55785;DHT22;41709;52.536;5.688;2024-02-21T09:08:13;9.70;93.10
55785;DHT22;41709;52.536;5.688;2024-02-21T09:10:42;9.70;93.10
55785;DHT22;41709;52.536;5.688;2024-02-21T09:13:07;9.70;93.00
55785;DHT22;41709;52.536;5.688;2024-02-21T09:15:34;9.70;92.90
55785;DHT22;41709;52.536;5.688;2024-02-21T09:17:59;9.80;93.10
55785;DHT22;41709;52.536;5.688;2024-02-21T09:20:25;9.70;93.10
55785;DHT22;41709;52.536;5.688;2024-02-21T09:22:50;9.70;93.10
55785;DHT22;41709;52.536;5.688;2024-02-21T09:25:17;9.70;93.00
55785;DHT22;41709;52.536;5.688;2024-02-21T09:27:44;9.80;93.00
55785;DHT22;41709;52.536;5.688;2024-02-21T09:30:10;9.80;93.10
55785;DHT22;41709;52.536;5.688;2024-02-21T09:32:36;9.80;93.00
55785;DHT22;41709;52.536;5.688;2024-02-21T09:35:02;9.80;92.90
55785;DHT22;41709;52.536;5.688;2024-02-21T09:37:28;9.80;93.10
55785;DHT22;41709;52.536;5.688;2024-02-21T09:39:54;9.80;92.80
55785;DHT22;41709;52.536;5.688;2024-02-21T09:42:20;9.80;92.70
55785;DHT22;41709;52.536;5.688;2024-02-21T09:44:47;9.90;92.80
55785;DHT22;41709;52.536;5.688;2024-02-21T09:47:21;9.90;92.70
55785;DHT22;41709;52.536;5.688;2024-02-21T09:49:48;9.90;92.60
55785;DHT22;41709;52.536;5.688;2024-02-21T09:52:15;9.90;92.60
55785;DHT22;41709;52.536;5.688;2024-02-21T09:54:41;9.90;92.70
55785;DHT22;41709;52.536;5.688;2024-02-21T09:57:10;10.00;92.60
55785;DHT22;41709;52.536;5.688;2024-02-21T09:59:36;10.00;92.60
55785;DHT22;41709;52.536;5.688;2024-02-21T10:02:02;10.00;92.50
55785;DHT22;41709;52.536;5.688;2024-02-21T10:04:28;10.10;92.60
55785;DHT22;41709;52.536;5.688;2024-02-21T10:06:54;10.10;92.40
55785;DHT22;41709;52.536;5.688;2024-02-21T10:09:21;10.10;92.40
55785;DHT22;41709;52.536;5.688;2024-02-21T10:11:48;10.10;92.50
55785;DHT22;41709;52.536;5.688;2024-02-21T10:14:15;10.10;92.40
55785;DHT22;41709;52.536;5.688;2024-02-21T10:16:41;10.10;92.70
55785;DHT22;41709;52.536;5.688;2024-02-21T10:19:06;10.20;92.30
55785;DHT22;41709;52.536;5.688;2024-02-21T10:21:32;10.20;92.40
55785;DHT22;41709;52.536;5.688;2024-02-21T10:23:58;10.20;92.30
55785;DHT22;41709;52.536;5.688;2024-02-21T10:26:23;10.20;92.20
55785;DHT22;41709;52.536;5.688;2024-02-21T10:28:49;10.30;92.10
55785;DHT22;41709;52.536;5.688;2024-02-21T10:31:27;10.30;92.00
55785;DHT22;41709;52.536;5.688;2024-02-21T10:34:00;10.30;91.90
55785;DHT22;41709;52.536;5.688;2024-02-21T10:36:28;10.30;91.80
55785;DHT22;41709;52.536;5.688;2024-02-21T10:38:54;10.30;91.80
55785;DHT22;41709;52.536;5.688;2024-02-21T10:41:20;10.40;91.70
55785;DHT22;41709;52.536;5.688;2024-02-21T10:43:53;10.30;91.60
55785;DHT22;41709;52.536;5.688;2024-02-21T10:46:21;10.30;91.50
55785;DHT22;41709;52.536;5.688;2024-02-21T10:48:48;10.40;91.40
55785;DHT22;41709;52.536;5.688;2024-02-21T10:51:18;10.40;91.40
55785;DHT22;41709;52.536;5.688;2024-02-21T10:58:49;10.40;91.70
55785;DHT22;41709;52.536;5.688;2024-02-21T11:01:15;10.40;91.10
55785;DHT22;41709;52.536;5.688;2024-02-21T11:03:45;10.40;91.00
55785;DHT22;41709;52.536;5.688;2024-02-21T11:06:12;10.40;90.90
55785;DHT22;41709;52.536;5.688;2024-02-21T11:08:38;10.40;90.90
55785;DHT22;41709;52.536;5.688;2024-02-21T11:11:05;10.40;90.90
55785;DHT22;41709;52.536;5.688;2024-02-21T11:13:40;10.40;90.80
55785;DHT22;41709;52.536;5.688;2024-02-21T11:16:22;10.40;90.60
55785;DHT22;41709;52.536;5.688;2024-02-21T11:18:48;10.30;90.60
55785;DHT22;41709;52.536;5.688;2024-02-21T11:21:14;10.30;90.60
55785;DHT22;41709;52.536;5.688;2024-02-21T11:23:39;10.30;90.60
55785;DHT22;41709;52.536;5.688;2024-02-21T11:26:06;10.30;90.40
55785;DHT22;41709;52.536;5.688;2024-02-21T11:28:32;10.30;90.60
55785;DHT22;41709;52.536;5.688;2024-02-21T11:31:15;10.40;90.70
55785;DHT22;41709;52.536;5.688;2024-02-21T11:33:42;10.40;90.60
55785;DHT22;41709;52.536;5.688;2024-02-21T11:36:08;10.40;90.60
55785;DHT22;41709;52.536;5.688;2024-02-21T11:38:34;10.60;90.70
55785;DHT22;41709;52.536;5.688;2024-02-21T11:41:00;10.50;90.60
55785;DHT22;41709;52.536;5.688;2024-02-21T11:43:25;10.50;90.40
55785;DHT22;41709;52.536;5.688;2024-02-21T11:45:59;10.50;90.30
55785;DHT22;41709;52.536;5.688;2024-02-21T11:48:25;10.50;90.30
55785;DHT22;41709;52.536;5.688;2024-02-21T11:50:55;10.50;90.50
55785;DHT22;41709;52.536;5.688;2024-02-21T11:53:21;10.40;90.40
55785;DHT22;41709;52.536;5.688;2024-02-21T11:55:47;10.40;90.40
55785;DHT22;41709;52.536;5.688;2024-02-21T11:58:12;10.40;90.60
55785;DHT22;41709;52.536;5.688;2024-02-21T12:00:38;10.40;90.70
55785;DHT22;41709;52.536;5.688;2024-02-21T12:03:04;10.50;90.70
55785;DHT22;41709;52.536;5.688;2024-02-21T12:05:31;10.40;90.50
55785;DHT22;41709;52.536;5.688;2024-02-21T12:07:57;10.50;90.60
55785;DHT22;41709;52.536;5.688;2024-02-21T12:10:24;10.50;90.50
55785;DHT22;41709;52.536;5.688;2024-02-21T12:12:51;10.50;90.60
55785;DHT22;41709;52.536;5.688;2024-02-21T12:15:18;10.50;90.50
55785;DHT22;41709;52.536;5.688;2024-02-21T12:17:44;10.50;90.60
55785;DHT22;41709;52.536;5.688;2024-02-21T12:20:10;10.60;90.70
55785;DHT22;41709;52.536;5.688;2024-02-21T12:22:41;10.50;90.40
55785;DHT22;41709;52.536;5.688;2024-02-21T12:25:16;10.50;90.50
55785;DHT22;41709;52.536;5.688;2024-02-21T12:27:46;10.50;90.60
55785;DHT22;41709;52.536;5.688;2024-02-21T12:30:12;10.50;90.60
55785;DHT22;41709;52.536;5.688;2024-02-21T12:32:37;10.50;90.80
55785;DHT22;41709;52.536;5.688;2024-02-21T12:35:03;10.50;90.70
55785;DHT22;41709;52.536;5.688;2024-02-21T12:37:29;10.50;90.60
55785;DHT22;41709;52.536;5.688;2024-02-21T12:39:54;10.60;90.60
55785;DHT22;41709;52.536;5.688;2024-02-21T12:42:20;10.50;90.60
55785;DHT22;41709;52.536;5.688;2024-02-21T12:44:46;10.70;90.60
55785;DHT22;41709;52.536;5.688;2024-02-21T12:47:11;10.60;90.60
55785;DHT22;41709;52.536;5.688;2024-02-21T12:49:37;10.70;90.70
55785;DHT22;41709;52.536;5.688;2024-02-21T12:52:03;10.70;90.50
55785;DHT22;41709;52.536;5.688;2024-02-21T12:54:29;10.80;90.50
55785;DHT22;41709;52.536;5.688;2024-02-21T12:56:56;10.80;90.40
55785;DHT22;41709;52.536;5.688;2024-02-21T12:59:21;10.80;90.40
55785;DHT22;41709;52.536;5.688;2024-02-21T13:01:47;10.90;90.30
55785;DHT22;41709;52.536;5.688;2024-02-21T13:04:13;10.90;90.30
55785;DHT22;41709;52.536;5.688;2024-02-21T13:06:38;11.00;90.10
55785;DHT22;41709;52.536;5.688;2024-02-21T13:09:04;11.00;90.10
55785;DHT22;41709;52.536;5.688;2024-02-21T13:11:34;11.00;89.60
55785;DHT22;41709;52.536;5.688;2024-02-21T13:14:00;11.00;89.70
55785;DHT22;41709;52.536;5.688;2024-02-21T13:16:25;11.00;89.60
55785;DHT22;41709;52.536;5.688;2024-02-21T13:18:54;11.00;89.20
55785;DHT22;41709;52.536;5.688;2024-02-21T13:21:19;11.00;89.20
55785;DHT22;41709;52.536;5.688;2024-02-21T13:23:45;11.00;88.80
55785;DHT22;41709;52.536;5.688;2024-02-21T13:26:10;10.90;88.60
55785;DHT22;41709;52.536;5.688;2024-02-21T13:28:38;10.90;89.10
55785;DHT22;41709;52.536;5.688;2024-02-21T13:31:03;10.90;88.90
55785;DHT22;41709;52.536;5.688;2024-02-21T13:33:29;10.80;89.10
55785;DHT22;41709;52.536;5.688;2024-02-21T13:35:54;10.90;89.70
55785;DHT22;41709;52.536;5.688;2024-02-21T13:38:20;10.90;89.40
55785;DHT22;41709;52.536;5.688;2024-02-21T13:40:45;10.90;89.20
55785;DHT22;41709;52.536;5.688;2024-02-21T13:43:12;10.90;89.50
55785;DHT22;41709;52.536;5.688;2024-02-21T13:45:38;11.00;89.40
55785;DHT22;41709;52.536;5.688;2024-02-21T13:48:04;10.90;89.40
55785;DHT22;41709;52.536;5.688;2024-02-21T13:50:32;10.90;89.20
55785;DHT22;41709;52.536;5.688;2024-02-21T13:52:57;10.90;89.20
55785;DHT22;41709;52.536;5.688;2024-02-21T13:55:23;10.90;89.50
55785;DHT22;41709;52.536;5.688;2024-02-21T13:57:52;10.90;89.40
55785;DHT22;41709;52.536;5.688;2024-02-21T14:00:18;10.90;89.50
55785;DHT22;41709;52.536;5.688;2024-02-21T14:02:44;10.90;89.60
55785;DHT22;41709;52.536;5.688;2024-02-21T14:05:10;10.80;89.30
55785;DHT22;41709;52.536;5.688;2024-02-21T14:07:35;10.80;89.60
55785;DHT22;41709;52.536;5.688;2024-02-21T14:10:01;10.90;89.50
55785;DHT22;41709;52.536;5.688;2024-02-21T14:12:27;10.90;89.70
55785;DHT22;41709;52.536;5.688;2024-02-21T14:14:52;10.80;89.90
55785;DHT22;41709;52.536;5.688;2024-02-21T14:17:18;10.90;89.90
55785;DHT22;41709;52.536;5.688;2024-02-21T14:19:44;10.80;89.60
55785;DHT22;41709;52.536;5.688;2024-02-21T14:22:10;10.80;89.90
55785;DHT22;41709;52.536;5.688;2024-02-21T14:24:37;10.80;89.60
55785;DHT22;41709;52.536;5.688;2024-02-21T14:27:02;10.90;89.90
55785;DHT22;41709;52.536;5.688;2024-02-21T14:29:28;10.80;89.80
55785;DHT22;41709;52.536;5.688;2024-02-21T14:31:54;10.80;90.00
55785;DHT22;41709;52.536;5.688;2024-02-21T14:34:20;10.80;90.00
55785;DHT22;41709;52.536;5.688;2024-02-21T14:36:45;10.80;89.90
55785;DHT22;41709;52.536;5.688;2024-02-21T14:39:11;10.80;89.90
55785;DHT22;41709;52.536;5.688;2024-02-21T14:41:36;10.80;90.00
55785;DHT22;41709;52.536;5.688;2024-02-21T14:44:02;10.80;90.00
55785;DHT22;41709;52.536;5.688;2024-02-21T14:46:28;10.90;90.00
55785;DHT22;41709;52.536;5.688;2024-02-21T14:48:57;10.90;89.80
55785;DHT22;41709;52.536;5.688;2024-02-21T14:51:23;10.80;89.90
55785;DHT22;41709;52.536;5.688;2024-02-21T14:53:49;10.80;89.90
55785;DHT22;41709;52.536;5.688;2024-02-21T14:56:15;10.80;90.10
55785;DHT22;41709;52.536;5.688;2024-02-21T14:58:41;10.80;90.00
55785;DHT22;41709;52.536;5.688;2024-02-21T15:01:10;10.80;90.10
55785;DHT22;41709;52.536;5.688;2024-02-21T15:03:38;10.80;90.10
55785;DHT22;41709;52.536;5.688;2024-02-21T15:06:04;10.80;90.20
55785;DHT22;41709;52.536;5.688;2024-02-21T15:08:29;10.90;90.20
55785;DHT22;41709;52.536;5.688;2024-02-21T15:10:55;10.90;90.20
55785;DHT22;41709;52.536;5.688;2024-02-21T15:13:21;10.90;90.20
55785;DHT22;41709;52.536;5.688;2024-02-21T15:15:47;10.90;90.20
55785;DHT22;41709;52.536;5.688;2024-02-21T15:18:14;10.90;90.20
55785;DHT22;41709;52.536;5.688;2024-02-21T15:20:40;10.90;90.30
55785;DHT22;41709;52.536;5.688;2024-02-21T15:23:06;10.90;90.50
55785;DHT22;41709;52.536;5.688;2024-02-21T15:25:31;10.90;90.50
55785;DHT22;41709;52.536;5.688;2024-02-21T15:27:57;10.90;90.60
55785;DHT22;41709;52.536;5.688;2024-02-21T15:30:23;10.90;90.70
55785;DHT22;41709;52.536;5.688;2024-02-21T15:32:48;10.90;90.80
55785;DHT22;41709;52.536;5.688;2024-02-21T15:35:14;10.90;90.80
55785;DHT22;41709;52.536;5.688;2024-02-21T15:37:40;10.90;90.80